Time;durP1;ratioP1;P1;durP2;ratioP2;P2;SDS_P1;SDS_P2;PMS_P1;PMS_P2;Temp;Humidity;BMP_temperature;BMP_pressure;BME280_temperature;BME280_humidity;BME280_pressure;Samples;Min_cycle;Max_cycle;Signal;HPM_P1;HPM_P2
2022/01/21 00:00:58;;;;;;;17.15;3.17;;;;;;;;;;5100582;28;20523;-76
2022/01/21 00:03:24;;;;;;;16.27;3.20;;;;;;;;;;5086190;28;20417;-76
2022/01/21 00:05:50;;;;;;;13.07;2.90;;;;;;;;;;5085198;28;20541;-76
2022/01/21 00:08:17;;;;;;;14.90;2.97;;;;;;;;;;5067253;28;20911;-76
2022/01/21 00:10:43;;;;;;;17.55;2.80;;;;;;;;;;5070691;28;20504;-77
2022/01/21 00:13:24;;;;;;;13.93;2.92;;;;;;;;;;5090469;28;20414;-76
2022/01/21 00:15:50;;;;;;;15.82;3.00;;;;;;;;;;5109647;27;20779;-77
2022/01/21 00:18:17;;;;;;;16.52;3.25;;;;;;;;;;5086812;28;20468;-76
2022/01/21 00:31:41;;;;;;;13.50;2.60;;;;;;;;;;5087922;28;20425;-76
2022/01/21 00:34:08;;;;;;;15.27;3.35;;;;;;;;;;5085328;28;20425;-76
2022/01/21 00:36:34;;;;;;;9.03;2.20;;;;;;;;;;5088417;28;20430;-76
2022/01/21 00:39:00;;;;;;;13.55;2.75;;;;;;;;;;5066801;28;20410;-76
2022/01/21 00:41:30;;;;;;;12.45;2.28;;;;;;;;;;5086704;28;20412;-76
2022/01/21 00:43:57;;;;;;;12.35;2.40;;;;;;;;;;5070390;28;20425;-76
2022/01/21 00:46:23;;;;;;;13.25;2.15;;;;;;;;;;5116393;27;20743;-75
2022/01/21 00:48:49;;;;;;;9.27;2.47;;;;;;;;;;5084946;28;20840;-76
2022/01/21 00:51:15;;;;;;;10.35;2.58;;;;;;;;;;5073114;28;20467;-76
2022/01/21 00:53:41;;;;;;;16.60;2.50;;;;;;;;;;5066345;28;20500;-76
2022/01/21 00:56:07;;;;;;;11.38;2.20;;;;;;;;;;5086317;28;20915;-76
2022/01/21 00:58:33;;;;;;;13.30;2.28;;;;;;;;;;5073384;28;20440;-76
2022/01/21 01:00:59;;;;;;;9.88;2.78;;;;;;;;;;5087087;28;20897;-77
2022/01/21 01:03:25;;;;;;;15.27;2.90;;;;;;;;;;5067748;28;20482;-77
2022/01/21 01:05:52;;;;;;;14.68;2.80;;;;;;;;;;5078825;28;21000;-76
2022/01/21 01:08:18;;;;;;;14.67;2.60;;;;;;;;;;5057174;28;20417;-76
2022/01/21 01:21:32;;;;;;;12.77;2.70;;;;;;;;;;5076940;28;20951;-76
2022/01/21 01:29:17;;;;;;;14.38;2.67;;;;;;;;;;5076954;28;20424;-76
2022/01/21 01:31:43;;;;;;;14.13;2.78;;;;;;;;;;5115688;27;20769;-76
2022/01/21 01:34:10;;;;;;;12.23;2.58;;;;;;;;;;5085073;28;20464;-76
2022/01/21 01:36:36;;;;;;;9.32;2.10;;;;;;;;;;5072941;28;20890;-76
2022/01/21 01:39:13;;;;;;;10.65;2.10;;;;;;;;;;5084487;28;20503;-75
2022/01/21 01:41:46;;;;;;;8.15;1.98;;;;;;;;;;5071273;28;20939;-76
2022/01/21 01:49:41;;;;;;;8.00;1.75;;;;;;;;;;5096178;28;20423;-76
2022/01/21 01:52:09;;;;;;;6.15;1.63;;;;;;;;;;5084188;28;20597;-77
2022/01/21 01:54:38;;;;;;;8.47;2.13;;;;;;;;;;5088436;28;20881;-76
2022/01/21 01:57:05;;;;;;;7.93;1.70;;;;;;;;;;5086363;28;20414;-76
2022/01/21 01:59:31;;;;;;;7.88;1.80;;;;;;;;;;5049905;28;21979;-76
2022/01/21 02:02:02;;;;;;;9.13;1.92;;;;;;;;;;5065682;28;20464;-76
2022/01/21 02:04:28;;;;;;;9.10;2.10;;;;;;;;;;5068425;28;20418;-76
2022/01/21 02:06:54;;;;;;;11.60;2.03;;;;;;;;;;5069272;28;20482;-76
2022/01/21 02:09:22;;;;;;;15.68;2.33;;;;;;;;;;5090205;28;20420;-76
2022/01/21 02:11:49;;;;;;;10.90;1.95;;;;;;;;;;5071119;28;20421;-76
2022/01/21 02:14:22;;;;;;;12.77;1.92;;;;;;;;;;5064115;28;20429;-76
2022/01/21 02:22:19;;;;;;;10.73;2.20;;;;;;;;;;5089617;28;20418;-77
2022/01/21 02:24:52;;;;;;;9.05;1.65;;;;;;;;;;5087376;28;20448;-77
2022/01/21 02:27:18;;;;;;;10.73;2.22;;;;;;;;;;5067724;28;20498;-77
2022/01/21 02:29:47;;;;;;;11.35;1.80;;;;;;;;;;5086997;28;20440;-78
2022/01/21 02:32:14;;;;;;;11.87;1.93;;;;;;;;;;5071263;28;20464;-77
2022/01/21 02:34:41;;;;;;;11.35;2.33;;;;;;;;;;5054213;28;20429;-78
2022/01/21 02:37:10;;;;;;;12.40;1.90;;;;;;;;;;5074977;28;23511;-77
2022/01/21 02:39:36;;;;;;;9.38;1.83;;;;;;;;;;5095479;28;20419;-77
2022/01/21 02:42:02;;;;;;;11.98;2.28;;;;;;;;;;5070597;28;20421;-77
2022/01/21 02:44:28;;;;;;;13.35;2.70;;;;;;;;;;5052072;28;20422;-78
2022/01/21 02:46:58;;;;;;;12.43;2.25;;;;;;;;;;5081600;28;20411;-78
2022/01/21 02:49:24;;;;;;;14.50;2.30;;;;;;;;;;5087511;28;20427;-77
2022/01/21 02:51:54;;;;;;;11.57;2.30;;;;;;;;;;5062903;28;20498;-77
2022/01/21 02:54:20;;;;;;;14.13;2.65;;;;;;;;;;5085435;28;20442;-78
2022/01/21 02:56:47;;;;;;;11.20;2.17;;;;;;;;;;5085894;28;20409;-77
2022/01/21 02:59:13;;;;;;;8.63;2.00;;;;;;;;;;5088263;28;20406;-76
2022/01/21 03:01:41;;;;;;;11.52;2.05;;;;;;;;;;5079056;28;20451;-77
2022/01/21 03:04:08;;;;;;;10.82;1.88;;;;;;;;;;5085943;28;20417;-76
2022/01/21 03:06:36;;;;;;;8.07;1.50;;;;;;;;;;5073296;28;20422;-77
2022/01/21 03:09:03;;;;;;;7.07;1.48;;;;;;;;;;5093304;28;20444;-77
2022/01/21 03:11:30;;;;;;;8.60;1.53;;;;;;;;;;5066646;28;20471;-76
2022/01/21 03:13:56;;;;;;;10.98;1.88;;;;;;;;;;5059842;28;20425;-77
2022/01/21 03:16:22;;;;;;;5.97;1.60;;;;;;;;;;5088674;28;20420;-77
2022/01/21 03:18:48;;;;;;;7.32;1.35;;;;;;;;;;5063472;28;20764;-77
2022/01/21 03:21:17;;;;;;;9.73;1.90;;;;;;;;;;5082723;28;20414;-77
2022/01/21 03:23:48;;;;;;;10.37;1.70;;;;;;;;;;5062324;28;20411;-77
2022/01/21 03:26:17;;;;;;;11.02;2.03;;;;;;;;;;5070217;28;20492;-77
2022/01/21 03:28:44;;;;;;;14.98;2.08;;;;;;;;;;5089624;28;20796;-77
2022/01/21 03:31:11;;;;;;;15.20;2.97;;;;;;;;;;5075651;28;20410;-77
2022/01/21 03:33:37;;;;;;;13.90;3.72;;;;;;;;;;5071129;28;20409;-77
2022/01/21 03:36:04;;;;;;;14.20;2.30;;;;;;;;;;5074299;28;20422;-77
2022/01/21 03:38:30;;;;;;;14.45;2.28;;;;;;;;;;5083982;28;20409;-76
2022/01/21 03:40:56;;;;;;;14.07;2.90;;;;;;;;;;5072910;28;20413;-77
2022/01/21 03:43:23;;;;;;;17.67;2.80;;;;;;;;;;5073568;28;20492;-76
2022/01/21 03:45:49;;;;;;;19.10;2.72;;;;;;;;;;5072790;28;20418;-77
2022/01/21 03:48:15;;;;;;;16.33;3.30;;;;;;;;;;5071861;28;20418;-77
2022/01/21 03:50:42;;;;;;;22.50;3.40;;;;;;;;;;5088061;28;20414;-77
2022/01/21 03:53:08;;;;;;;14.63;2.72;;;;;;;;;;5086027;28;20452;-77
2022/01/21 03:55:34;;;;;;;13.63;2.65;;;;;;;;;;5088687;28;20781;-78
2022/01/21 03:58:01;;;;;;;18.65;3.63;;;;;;;;;;5072008;28;20812;-77
2022/01/21 04:00:29;;;;;;;15.68;2.75;;;;;;;;;;5061459;28;20424;-77
2022/01/21 04:02:56;;;;;;;22.08;3.10;;;;;;;;;;5082880;28;20973;-77
2022/01/21 04:05:22;;;;;;;16.98;2.80;;;;;;;;;;5069067;28;20483;-78
2022/01/21 04:07:48;;;;;;;21.48;2.72;;;;;;;;;;5086596;28;20505;-78
2022/01/21 04:10:15;;;;;;;20.48;3.65;;;;;;;;;;5071718;28;20413;-78
2022/01/21 04:12:41;;;;;;;19.30;3.10;;;;;;;;;;5070832;28;20422;-78
2022/01/21 04:15:07;;;;;;;18.73;2.78;;;;;;;;;;5071408;28;20954;-78
2022/01/21 04:17:34;;;;;;;13.98;3.22;;;;;;;;;;5089324;28;20493;-78
2022/01/21 04:20:00;;;;;;;18.67;2.80;;;;;;;;;;5069789;28;20406;-78
2022/01/21 04:22:26;;;;;;;20.25;3.25;;;;;;;;;;5073978;28;20409;-78
2022/01/21 04:24:54;;;;;;;15.90;2.70;;;;;;;;;;5082036;28;20407;-78
2022/01/21 04:27:20;;;;;;;16.38;2.50;;;;;;;;;;5071621;28;20758;-77
2022/01/21 04:29:46;;;;;;;14.03;2.90;;;;;;;;;;5088866;28;20421;-78
2022/01/21 04:32:12;;;;;;;12.80;2.65;;;;;;;;;;5089569;28;20425;-78
2022/01/21 04:34:38;;;;;;;17.48;3.10;;;;;;;;;;5087506;28;20426;-78
2022/01/21 04:37:08;;;;;;;15.02;2.85;;;;;;;;;;5083065;28;20424;-77
2022/01/21 04:39:40;;;;;;;12.93;2.40;;;;;;;;;;5088121;28;20815;-77
2022/01/21 04:47:36;;;;;;;19.67;3.97;;;;;;;;;;5088877;28;20520;-77
2022/01/21 04:50:09;;;;;;;13.65;2.60;;;2.90;99.90;;;;;;5085922;28;20539;-75
2022/01/21 04:52:35;;;;;;;13.23;2.47;;;;;;;;;;5090211;28;20468;-77
2022/01/21 04:55:01;;;;;;;13.07;2.63;;;;;;;;;;5073466;28;20535;-77
2022/01/21 04:57:29;;;;;;;15.57;2.80;;;;;;;;;;5055892;28;20417;-77
2022/01/21 04:59:55;;;;;;;13.23;2.38;;;;;;;;;;5086126;28;20467;-77
2022/01/21 05:02:23;;;;;;;15.18;2.80;;;;;;;;;;5092144;28;20419;-76
2022/01/21 05:04:49;;;;;;;16.45;2.70;;;;;;;;;;5066961;28;20413;-76
2022/01/21 05:07:20;;;;;;;16.37;3.10;;;;;;;;;;5071923;28;20417;-77
2022/01/21 05:09:46;;;;;;;13.75;2.70;;;;;;;;;;5067342;28;20427;-77
2022/01/21 05:12:18;;;;;;;20.88;2.90;;;;;;;;;;5068601;28;20429;-76
2022/01/21 05:17:16;;;;;;;16.58;3.03;;;;;;;;;;5087774;28;20559;-77
2022/01/21 05:19:42;;;;;;;14.85;2.55;;;;;;;;;;5063489;28;20444;-77
2022/01/21 05:22:09;;;;;;;15.68;2.67;;;;;;;;;;5092018;28;20410;-77
2022/01/21 05:24:35;;;;;;;17.52;2.75;;;;;;;;;;5070090;28;20778;-77
2022/01/21 05:27:02;;;;;;;16.90;2.83;;;;;;;;;;5088402;28;20418;-78
2022/01/21 05:29:29;;;;;;;16.17;2.70;;;;;;;;;;5069607;28;20414;-77
2022/01/21 05:31:55;;;;;;;12.73;2.30;;;;;;;;;;5088829;28;20516;-77
2022/01/21 05:34:21;;;;;;;14.48;2.40;;;;;;;;;;5071544;28;20770;-76
2022/01/21 05:36:48;;;;;;;12.30;2.22;;;;;;;;;;5069847;28;20426;-75
2022/01/21 05:39:15;;;;;;;13.68;2.70;;;;;;;;;;5069687;28;20410;-76
2022/01/21 05:41:45;;;;;;;15.00;2.22;;;;;;;;;;5088392;28;20417;-76
2022/01/21 05:46:59;;;;;;;14.37;2.80;;;;;;;;;;5045360;28;20538;-76
2022/01/21 05:49:26;;;;;;;15.98;2.80;;;;;;;;;;5097268;27;20915;-76
2022/01/21 05:52:00;;;;;;;15.55;2.55;;;;;;;;;;5066116;28;20429;-76
2022/01/21 05:54:26;;;;;;;16.75;2.30;;;;;;;;;;5070460;28;20780;-76
2022/01/21 05:56:53;;;;;;;16.48;2.45;;;;;;;;;;5091358;28;20486;-77
2022/01/21 05:59:19;;;;;;;18.80;3.30;;;;;;;;;;5098056;28;20811;-76
2022/01/21 06:01:45;;;;;;;17.33;3.00;;;;;;;;;;5089493;28;20410;-76
2022/01/21 06:04:11;;;;;;;14.25;2.83;;;;;;;;;;5070184;28;20453;-77
2022/01/21 06:06:37;;;;;;;18.10;2.67;;;;;;;;;;5067139;28;20422;-77
2022/01/21 06:09:04;;;;;;;12.88;2.63;;;;;;;;;;5086676;28;20429;-76
2022/01/21 06:11:30;;;;;;;13.55;2.30;;;;;;;;;;5080038;28;20433;-76
2022/01/21 06:13:57;;;;;;;16.73;2.90;;;;;;;;;;5083631;28;20414;-76
2022/01/21 06:16:23;;;;;;;17.60;2.83;;;;;;;;;;5071089;28;20410;-77
2022/01/21 06:18:50;;;;;;;17.75;3.10;;;;;;;;;;5069862;28;20408;-77
2022/01/21 06:21:16;;;;;;;17.87;3.00;;;;;;;;;;5075076;28;20433;-76
2022/01/21 06:23:42;;;;;;;15.40;2.42;;;;;;;;;;5053648;28;20935;-77
2022/01/21 06:26:08;;;;;;;9.88;2.60;;;;;;;;;;5052646;28;20410;-76
2022/01/21 06:28:34;;;;;;;14.60;2.65;;;;;;;;;;5083380;28;20419;-76
2022/01/21 06:31:01;;;;;;;10.77;2.60;;;;;;;;;;5088459;28;20428;-77
2022/01/21 06:33:27;;;;;;;11.95;2.78;;;;;;;;;;5071625;28;20921;-76
2022/01/21 06:35:53;;;;;;;14.63;2.72;;;;;;;;;;5062225;28;20607;-77
2022/01/21 06:38:20;;;;;;;12.90;2.70;;;;;;;;;;5088508;28;20421;-76
2022/01/21 06:40:47;;;;;;;14.68;2.72;;;;;;;;;;5086033;28;20447;-76
2022/01/21 06:43:13;;;;;;;14.70;2.67;;;;;;;;;;5055070;28;20855;-77
2022/01/21 06:45:40;;;;;;;14.50;2.83;;;;;;;;;;5110540;27;20416;-78
2022/01/21 06:48:06;;;;;;;16.33;2.85;;;;;;;;;;5070284;28;20482;-79
2022/01/21 06:50:33;;;;;;;14.82;3.00;;;;;;;;;;5085856;28;20800;-78
2022/01/21 06:53:00;;;;;;;17.77;4.45;;;;;;;;;;5086097;28;20413;-79
2022/01/21 06:55:26;;;;;;;21.37;8.30;;;;;;;;;;5087118;28;20414;-78
2022/01/21 06:57:52;;;;;;;17.67;5.85;;;;;;;;;;5088550;28;20429;-79
2022/01/21 07:00:19;;;;;;;19.13;4.57;;;;;;;;;;5068825;28;20543;-78
2022/01/21 07:02:45;;;;;;;15.93;3.45;;;;;;;;;;5079256;28;20446;-78
2022/01/21 07:05:12;;;;;;;13.82;3.35;;;;;;;;;;5086713;28;20422;-79
2022/01/21 07:07:38;;;;;;;15.98;2.50;;;;;;;;;;5075124;28;20413;-80
2022/01/21 07:10:06;;;;;;;10.57;2.30;;;;;;;;;;5097760;28;20425;-80
2022/01/21 07:12:33;;;;;;;15.68;2.60;;;;;;;;;;5068376;28;20431;-78
2022/01/21 07:14:59;;;;;;;16.97;3.00;;;;;;;;;;5074546;28;20409;-78
2022/01/21 07:17:25;;;;;;;13.15;2.70;;;;;;;;;;5058097;28;20429;-78
2022/01/21 07:19:51;;;;;;;11.65;2.50;;;;;;;;;;5065716;28;20430;-77
2022/01/21 07:22:17;;;;;;;12.30;2.60;;;;;;;;;;5068589;28;20502;-78
2022/01/21 07:24:43;;;;;;;18.23;3.15;;;;;;;;;;5066407;28;20824;-78
2022/01/21 07:27:10;;;;;;;12.55;3.30;;;;;;;;;;5090265;28;20470;-77
2022/01/21 07:29:36;;;;;;;19.08;3.30;;;;;;;;;;5089587;28;20826;-78
2022/01/21 07:32:02;;;;;;;15.87;3.03;;;;;;;;;;5067179;28;20515;-78
2022/01/21 07:34:28;;;;;;;11.98;2.38;;;;;;;;;;5087321;28;20409;-79
2022/01/21 07:36:55;;;;;;;16.33;3.20;;;;;;;;;;5055987;28;20432;-79
2022/01/21 07:39:22;;;;;;;14.32;2.50;;;;;;;;;;5070892;28;20420;-79
2022/01/21 07:41:48;;;;;;;14.77;2.65;;;;;;;;;;5085338;28;20415;-79
2022/01/21 07:44:14;;;;;;;19.03;3.13;;;;;;;;;;5073033;28;20449;-79
2022/01/21 07:46:41;;;;;;;16.55;2.92;;;;;;;;;;5063755;28;20451;-78
2022/01/21 07:49:07;;;;;;;11.95;2.50;;;;;;;;;;5082423;28;20468;-78
2022/01/21 07:51:34;;;;;;;12.85;2.55;;;;;;;;;;5081071;28;20939;-78
2022/01/21 07:54:00;;;;;;;19.90;3.30;;;;;;;;;;5069385;28;20988;-78
2022/01/21 07:56:26;;;;;;;19.25;3.05;;;;;;;;;;5069724;28;20420;-78
2022/01/21 07:58:52;;;;;;;16.33;3.25;;;;;;;;;;5055256;28;20416;-80
2022/01/21 08:01:19;;;;;;;12.70;2.83;;;;;;;;;;5053972;28;20991;-79
2022/01/21 08:03:45;;;;;;;15.77;3.03;;;;;;;;;;5121170;27;20413;-80
2022/01/21 08:06:11;;;;;;;14.85;2.85;;;;;;;;;;5090075;28;20785;-80
2022/01/21 08:08:37;;;;;;;20.02;3.00;;;;;;;;;;5070902;28;20426;-80
2022/01/21 08:11:03;;;;;;;17.25;2.90;;;;;;;;;;5066854;28;20895;-80
2022/01/21 08:13:30;;;;;;;16.50;2.88;;;;;;;;;;5080549;28;20509;-81
2022/01/21 08:15:56;;;;;;;17.30;2.72;;;;;;;;;;5085049;28;20956;-81
2022/01/21 08:18:23;;;;;;;13.20;2.60;;;;;;;;;;5071391;28;20410;-80
2022/01/21 08:20:49;;;;;;;14.25;3.00;;;;;;;;;;5083381;28;20746;-79
2022/01/21 08:23:15;;;;;;;20.48;3.30;;;;;;;;;;5085326;28;20486;-81
2022/01/21 08:25:41;;;;;;;17.52;3.78;;;;;;;;;;5058911;28;20428;-80
2022/01/21 08:28:07;;;;;;;17.67;4.05;;;;;;;;;;5080860;28;20416;-80
2022/01/21 08:30:34;;;;;;;14.55;3.08;;;;;;;;;;5063925;28;20450;-80
2022/01/21 08:33:01;;;;;;;17.92;3.05;;;;;;;;;;5055613;28;20418;-80
2022/01/21 08:35:27;;;;;;;16.52;3.17;;;;;;;;;;5083870;28;20422;-80
2022/01/21 08:37:54;;;;;;;14.80;3.17;;;;;;;;;;5053124;28;20430;-80
2022/01/21 08:40:21;;;;;;;17.85;3.53;;;;;;;;;;5084306;28;20425;-80
2022/01/21 08:42:47;;;;;;;17.38;3.17;;;;;;;;;;5079723;28;20422;-80
2022/01/21 08:45:13;;;;;;;15.40;3.33;;;;;;;;;;5063691;28;20559;-81
2022/01/21 08:47:41;;;;;;;18.13;3.08;;;;;;;;;;5100053;28;20475;-81
2022/01/21 08:50:09;;;;;;;19.98;3.70;;;;;;;;;;5079710;28;20463;-81
2022/01/21 08:52:37;;;;;;;14.90;3.65;;;;;;;;;;5071066;28;20941;-80
2022/01/21 08:55:08;;;;;;;18.95;4.18;;;;;;;;;;5068213;28;20475;-80
2022/01/21 08:57:36;;;;;;;19.33;3.47;;;;;;;;;;5087143;28;20501;-81
2022/01/21 09:00:04;;;;;;;19.92;3.55;;;;;;;;;;5091368;28;20429;-80
2022/01/21 09:02:31;;;;;;;19.00;3.67;;;;;;;;;;5085616;28;20414;-81
2022/01/21 09:04:57;;;;;;;22.60;4.20;;;;;;;;;;5062367;28;20837;-81
2022/01/21 09:07:23;;;;;;;23.15;3.97;;;;;;;;;;5070665;28;20452;-80
2022/01/21 09:09:49;;;;;;;21.08;3.72;;;;;;;;;;5084369;28;20414;-80
2022/01/21 09:12:15;;;;;;;21.50;3.75;;;;;;;;;;5072418;28;20434;-80
2022/01/21 09:14:41;;;;;;;20.95;3.88;;;;;;;;;;5065825;28;20425;-78
2022/01/21 09:17:07;;;;;;;18.05;3.33;;;;;;;;;;5086551;28;20422;-79
2022/01/21 09:19:34;;;;;;;20.38;3.70;;;;;;;;;;5091131;28;20414;-80
2022/01/21 09:22:02;;;;;;;17.80;3.65;;;;;;;;;;5088952;28;20486;-80
2022/01/21 09:24:29;;;;;;;17.60;4.57;;;;;;;;;;5081513;28;20484;-83
2022/01/21 09:26:55;;;;;;;15.60;3.53;;;;;;;;;;5088967;28;20504;-82
2022/01/21 09:29:21;;;;;;;14.23;2.67;;;;;;;;;;5084623;28;20426;-77
2022/01/21 09:31:47;;;;;;;14.90;3.20;;;;;;;;;;5049213;28;20423;-77
2022/01/21 09:34:14;;;;;;;14.77;3.20;;;;;;;;;;5089519;28;20763;-76
2022/01/21 09:36:42;;;;;;;14.20;3.90;;;;;;;;;;5086295;28;20429;-76
2022/01/21 09:39:08;;;;;;;14.30;3.28;;;;;;;;;;5097668;28;20428;-76
2022/01/21 09:41:34;;;;;;;14.95;3.30;;;;;;;;;;5086305;28;20410;-76
2022/01/21 09:44:03;;;;;;;15.55;3.67;;;;;;;;;;5066425;28;20463;-76
2022/01/21 09:46:36;;;;;;;15.10;3.45;;;;;;;;;;5077098;28;20479;-77
2022/01/21 09:49:19;;;;;;;16.20;3.55;;;;;;;;;;5083325;28;20416;-77
2022/01/21 09:51:45;;;;;;;16.90;3.33;;;;;;;;;;5085537;28;20428;-78
2022/01/21 09:54:13;;;;;;;22.73;3.53;;;;;;;;;;5079110;28;20485;-79
2022/01/21 09:56:40;;;;;;;17.77;3.65;;;;;;;;;;5070608;28;20424;-80
2022/01/21 09:59:06;;;;;;;15.60;3.83;;;;;;;;;;5080304;28;20982;-76
2022/01/21 10:01:33;;;;;;;18.10;3.33;;;;;;;;;;5074751;28;20406;-76
2022/01/21 10:04:00;;;;;;;17.70;3.60;;;;;;;;;;5080721;28;20497;-77
2022/01/21 10:06:26;;;;;;;14.23;2.65;;;;;;;;;;5086988;28;20496;-77
2022/01/21 10:08:55;;;;;;;14.85;2.92;;;;;;;;;;5069198;28;20986;-77
2022/01/21 10:11:21;;;;;;;18.25;3.10;;;;;;;;;;5079378;28;20929;-77
2022/01/21 10:13:48;;;;;;;16.38;3.20;;;;;;;;;;5073178;28;20440;-76
2022/01/21 10:16:14;;;;;;;15.90;3.13;;;;;;;;;;5087477;28;20496;-76
2022/01/21 10:18:58;;;;;;;19.52;3.50;;;;;;;;;;5084731;28;20784;-77
2022/01/21 10:21:28;;;;;;;23.17;4.10;;;;;;;;;;5088454;28;20505;-76
2022/01/21 10:23:54;;;;;;;23.63;4.20;;;;;;;;;;5084997;28;20471;-76
2022/01/21 10:26:23;;;;;;;25.13;4.47;;;;;;;;;;5065081;28;20421;-76
2022/01/21 10:28:55;;;;;;;27.92;4.38;;;5.40;99.90;;;;;;5065733;28;20816;-79
2022/01/21 10:31:23;;;;;;;18.50;3.85;;;;;;;;;;5091886;28;20423;-78
2022/01/21 10:33:51;;;;;;;19.13;4.30;;;;;;;;;;5065517;28;20413;-78
2022/01/21 10:36:30;;;;;;;26.15;4.10;;;;;;;;;;5085343;28;20458;-78
2022/01/21 10:39:09;;;;;;;34.40;5.20;;;;;;;;;;5076671;28;20452;-79
2022/01/21 10:41:35;;;;;;;24.67;4.72;;;;;;;;;;5078883;28;20424;-78
2022/01/21 10:44:12;;;;;;;25.38;4.50;;;;;;;;;;5074383;28;20418;-78
2022/01/21 10:46:40;;;;;;;25.27;5.13;;;;;;;;;;5084389;28;20461;-79
2022/01/21 10:49:09;;;;;;;28.27;5.03;;;;;;;;;;5059517;28;20587;-78
2022/01/21 10:51:40;;;;;;;22.88;4.35;;;;;;;;;;5077334;28;20506;-79
2022/01/21 10:54:14;;;;;;;31.10;5.07;;;;;;;;;;5085330;28;20422;-78
2022/01/21 10:56:40;;;;;;;21.23;4.70;;;;;;;;;;5084122;28;20422;-78
2022/01/21 10:59:06;;;;;;;22.45;3.97;;;;;;;;;;5086272;28;20483;-78
2022/01/21 11:01:33;;;;;;;26.83;4.33;;;;;;;;;;5065889;28;21154;-78
2022/01/21 11:04:03;;;;;;;21.98;4.20;;;;;;;;;;5077061;28;20410;-77
2022/01/21 11:06:38;;;;;;;19.20;3.57;;;;;;;;;;5085785;28;20514;-77
2022/01/21 11:09:18;;;;;;;19.35;4.38;;;;;;;;;;5089070;28;20421;-77
2022/01/21 11:11:45;;;;;;;16.75;3.40;;;;;;;;;;5066077;28;20436;-77
2022/01/21 11:14:13;;;;;;;21.27;3.55;;;;;;;;;;5050114;28;20414;-77
2022/01/21 11:16:42;;;;;;;17.45;3.13;;;;;;;;;;5085622;28;20931;-77
2022/01/21 11:19:12;;;;;;;15.82;3.30;;;;;;;;;;5109202;28;21711;-77
2022/01/21 11:21:43;;;;;;;14.70;3.00;;;;;;;;;;5064968;28;20979;-77
2022/01/21 11:24:09;;;;;;;16.70;3.47;;;;;;;;;;5078199;28;20502;-77
2022/01/21 11:26:36;;;;;;;17.17;3.50;;;;;;;;;;5064024;28;20418;-77
2022/01/21 11:29:03;;;;;;;17.38;3.42;;;;;;;;;;5101792;28;20423;-77
2022/01/21 11:31:30;;;;;;;20.23;3.27;;;;;;;;;;5086083;28;20833;-77
2022/01/21 11:33:56;;;;;;;14.93;3.35;;;;;;;;;;5068055;28;20418;-77
2022/01/21 11:36:22;;;;;;;15.20;3.58;;;;;;;;;;5069022;28;20466;-76
2022/01/21 11:38:53;;;;;;;13.32;2.80;;;;;;;;;;5082517;28;20422;-75
2022/01/21 11:41:20;;;;;;;20.33;3.60;;;;;;;;;;5063743;28;20422;-75
2022/01/21 11:43:52;;;;;;;22.38;3.78;;;;;;;;;;5069465;28;20473;-75
2022/01/21 11:49:01;;;;;;;18.42;2.90;;;;;;;;;;5089638;28;20909;-74
2022/01/21 11:51:27;;;;;;;15.23;2.58;;;;;;;;;;5112595;27;20413;-75
2022/01/21 11:53:57;;;;;;;17.80;3.10;;;;;;;;;;5063822;28;20428;-74
2022/01/21 11:56:30;;;;;;;16.85;2.80;;;;;;;;;;5081197;28;20472;-74
2022/01/21 11:59:08;;;;;;;14.02;2.97;;;;;;;;;;5081777;28;20509;-75
2022/01/21 12:01:39;;;;;;;17.67;4.10;;;;;;;;;;5060627;28;20421;-74
2022/01/21 12:04:05;;;;;;;15.30;3.10;;;;;;;;;;5063824;28;20492;-75
2022/01/21 12:06:33;;;;;;;14.00;3.13;;;;;;;;;;5076789;28;20950;-75
2022/01/21 12:09:00;;;;;;;14.57;2.72;;;;;;;;;;5087263;28;20422;-75
2022/01/21 12:11:31;;;;;;;15.87;2.80;;;;;;;;;;5085863;28;20964;-75
2022/01/21 12:13:57;;;;;;;13.10;3.28;;;;;;;;;;5073311;28;20437;-75
2022/01/21 12:17:00;;;;;;;13.30;2.90;;;7.10;99.90;;;;;;5087661;28;20516;-74
2022/01/21 12:19:28;;;;;;;16.35;2.88;;;;;;;;;;5066508;28;20421;-74
2022/01/21 12:21:54;;;;;;;12.35;2.78;;;;;;;;;;5087173;28;20428;-74
2022/01/21 12:24:44;;;;;;;15.82;3.28;;;;;;;;;;5069760;28;20790;-75
2022/01/21 12:27:13;;;;;;;11.30;2.28;;;;;;;;;;5067992;28;20429;-75
2022/01/21 12:29:39;;;;;;;16.48;3.05;;;;;;;;;;5070296;28;20421;-75
2022/01/21 12:32:32;;;;;;;16.83;2.95;;;;;;;;;;5090048;28;20915;-75
2022/01/21 12:35:01;;;;;;;17.67;3.10;;;;;;;;;;5113011;27;20426;-75
2022/01/21 12:37:49;;;;;;;20.58;4.15;;;;;;;;;;5074771;28;20416;-74
2022/01/21 12:40:31;;;;;;;21.00;3.70;;;;;;;;;;5082518;28;20421;-75
2022/01/21 12:42:57;;;;;;;21.30;4.60;;;;;;;;;;5084820;28;20925;-75
2022/01/21 12:45:24;;;;;;;17.38;3.33;;;;;;;;;;5087590;28;20429;-75
2022/01/21 12:47:50;;;;;;;19.15;3.35;;;;;;;;;;5104654;28;20420;-75
2022/01/21 12:50:25;;;;;;;18.17;3.50;;;;;;;;;;5083171;28;20426;-75
2022/01/21 12:53:08;;;;;;;19.20;3.60;;;;;;;;;;5071373;28;20512;-74
2022/01/21 12:58:21;;;;;;;18.65;3.67;;;;;;;;;;5082713;28;20418;-75
2022/01/21 13:00:48;;;;;;;17.92;3.88;;;;;;;;;;5084687;28;20939;-75
2022/01/21 13:03:35;;;;;;;19.92;3.42;;;;;;;;;;5063332;28;20918;-74
2022/01/21 13:06:20;;;;;;;15.70;3.07;;;;;;;;;;5069318;28;22165;-75
2022/01/21 13:08:52;;;;;;;14.18;3.03;;;;;;;;;;5079850;28;20475;-74
2022/01/21 13:11:23;;;;;;;21.90;3.60;;;;;;;;;;5077632;28;20923;-73
2022/01/21 13:14:01;;;;;;;21.70;3.60;;;;;;;;;;5081782;28;20920;-74
2022/01/21 13:16:31;;;;;;;22.63;3.85;;;;;;;;;;5080065;28;20442;-74
2022/01/21 13:19:04;;;;;;;15.23;3.33;;;;;;;;;;5069177;28;20434;-74
2022/01/21 13:21:31;;;;;;;15.90;3.80;;;;;;;;;;5068210;28;20818;-74
2022/01/21 13:23:59;;;;;;;20.02;3.55;;;;;;;;;;5082112;28;21527;-74
2022/01/21 13:26:27;;;;;;;16.15;3.10;;;;;;;;;;5062587;28;20506;-74
2022/01/21 13:28:56;;;;;;;18.58;3.50;;;;;;;;;;5069857;28;20461;-74
2022/01/21 13:31:22;;;;;;;19.67;3.40;;;;;;;;;;5063400;28;20422;-74
2022/01/21 13:33:49;;;;;;;19.45;3.50;;;;;;;;;;5078399;28;20809;-74
2022/01/21 13:36:35;;;;;;;22.08;3.88;;;;;;;;;;5110632;27;20431;-75
2022/01/21 13:39:32;;;;;;;21.05;3.80;;;;;;;;;;5060102;28;20435;-74
2022/01/21 13:42:03;;;;;;;16.88;3.28;;;;;;;;;;5058231;28;20785;-75
2022/01/21 13:44:31;;;;;;;19.38;4.28;;;;;;;;;;5086370;28;20421;-75
2022/01/21 13:46:59;;;;;;;19.55;4.22;;;;;;;;;;5068593;28;20454;-75
2022/01/21 13:49:26;;;;;;;22.42;4.05;;;7.10;99.90;;;;;;5068125;28;20430;-74
2022/01/21 13:52:03;;;;;;;21.85;3.78;;;;;;;;;;5085254;28;20417;-74
2022/01/21 13:54:33;;;;;;;17.10;4.22;;;;;;;;;;5080291;28;20433;-74
2022/01/21 13:57:00;;;;;;;19.13;4.00;;;;;;;;;;5081169;28;20436;-74
2022/01/21 13:59:26;;;;;;;18.85;4.13;;;;;;;;;;5060593;28;20424;-74
2022/01/21 14:02:06;;;;;;;23.23;4.07;;;;;;;;;;5087727;28;20812;-73
2022/01/21 14:04:32;;;;;;;18.95;3.58;;;;;;;;;;5076328;28;20429;-74
2022/01/21 14:06:59;;;;;;;25.17;4.22;;;;;;;;;;5086767;28;20449;-74
2022/01/21 14:09:25;;;;;;;21.73;4.13;;;;;;;;;;5076272;28;20922;-74
2022/01/21 14:11:51;;;;;;;20.80;4.13;;;;;;;;;;5087011;28;20507;-74
2022/01/21 14:14:21;;;;;;;24.58;4.60;;;;;;;;;;5063886;28;20564;-74
2022/01/21 14:16:53;;;;;;;21.55;3.92;;;;;;;;;;5068910;28;20417;-74
2022/01/21 14:19:20;;;;;;;17.55;3.67;;;;;;;;;;5075932;28;20440;-75
2022/01/21 14:21:47;;;;;;;19.58;4.22;;;;;;;;;;5064022;28;20772;-75
2022/01/21 14:24:15;;;;;;;22.75;3.88;;;;;;;;;;5085304;28;20422;-75
2022/01/21 14:26:51;;;;;;;19.23;3.63;;;;;;;;;;5083028;28;20448;-75
2022/01/21 14:29:27;;;;;;;20.33;4.15;;;;;;;;;;5080874;28;20421;-74
2022/01/21 14:31:55;;;;;;;19.87;3.80;;;;;;;;;;5079900;28;21265;-74
2022/01/21 14:34:23;;;;;;;20.70;4.10;;;;;;;;;;5064548;28;20914;-75
2022/01/21 14:36:59;;;;;;;18.85;3.55;;;;;;;;;;5081079;28;20567;-75
2022/01/21 14:39:25;;;;;;;21.42;3.90;;;;;;;;;;5081323;28;20422;-74
2022/01/21 14:41:53;;;;;;;23.80;4.32;;;;;;;;;;5082211;28;20512;-75
2022/01/21 14:44:38;;;;;;;18.55;3.67;;;;;;;;;;5086144;28;20421;-75
2022/01/21 14:47:12;;;;;;;16.73;3.45;;;;;;;;;;5068390;28;20439;-75
2022/01/21 14:49:38;;;;;;;18.88;3.95;;;;;;;;;;5073760;28;20420;-74
2022/01/21 14:54:51;;;;;;;17.48;4.30;;;7.20;99.90;;;;;;5082826;28;20502;-75
2022/01/21 14:57:17;;;;;;;18.80;4.47;;;;;;;;;;5071173;28;20451;-75
2022/01/21 14:59:53;;;;;;;23.63;4.05;;;;;;;;;;5079636;28;20872;-75
2022/01/21 15:02:27;;;;;;;19.43;4.00;;;;;;;;;;5059989;28;20900;-74
2022/01/21 15:04:55;;;;;;;19.20;3.87;;;;;;;;;;5082777;28;20929;-75
2022/01/21 15:07:25;;;;;;;19.27;3.88;;;;;;;;;;5081517;28;20419;-75
2022/01/21 15:09:53;;;;;;;16.70;3.73;;;;;;;;;;5066400;28;20422;-75
2022/01/21 15:15:37;;;;;;;19.48;3.92;;;;;;;;;;5083611;28;20505;-74
2022/01/21 15:18:04;;;;;;;20.63;3.77;;;;;;;;;;5080247;28;20942;-75
2022/01/21 15:20:32;;;;;;;18.17;4.63;;;;;;;;;;5077034;28;20410;-75
2022/01/21 15:22:58;;;;;;;20.25;3.60;;;;;;;;;;5078438;28;20425;-76
2022/01/21 15:25:24;;;;;;;18.15;3.60;;;;;;;;;;5070021;28;20417;-75
2022/01/21 15:27:50;;;;;;;17.77;3.55;;;;;;;;;;5080478;28;20423;-75
2022/01/21 15:30:17;;;;;;;12.73;3.17;;;;;;;;;;5086443;28;20434;-74
2022/01/21 15:32:44;;;;;;;12.07;2.97;;;;;;;;;;5088234;28;20455;-74
2022/01/21 15:35:10;;;;;;;13.23;3.45;;;;;;;;;;5086835;28;20450;-74